This is the latest recevied weather packets stored in our database for station/object N1OTX. If no packets are shown the sender has not sent any weather packets the latest 10 day(s).
| Time | Temp. | Humidity | Pressure | Rain* | Wind** | Luminosity | Snow |
|---|---|---|---|---|---|---|---|
| 1778004628 | 27.78° C | 38% | 1007.3 hPa | 0 mm | - | 754 W/m² | - |
| 1778004328 | 27.78° C | 38% | 1007.2 hPa | 0 mm | - | 758 W/m² | - |
| 1778003427 | 28.33° C | 37% | 1007.5 hPa | 0 mm | - | 774 W/m² | - |
| 1778001929 | 27.22° C | 36% | 1007.8 hPa | 0 mm | - | 804 W/m² | - |
| 1778001328 | 27.22° C | 36% | 1007.8 hPa | 0 mm | - | 814 W/m² | - |
| 1778000728 | 26.67° C | 38% | 1008 hPa | 0 mm | - | 819 W/m² | - |
| 1778000448 | 26.67° C | 38% | 1008.1 hPa | 0 mm | - | 814 W/m² | - |
| 1778000127 | 26.67° C | 39% | 1008.3 hPa | 0 mm | - | 807 W/m² | - |
| 1777999529 | 26.67° C | 39% | 1008.4 hPa | 0 mm | - | 805 W/m² | - |
| 1777999229 | 26.67° C | 40% | 1008.4 hPa | 0 mm | - | 794 W/m² | - |
| 1777994729 | 23.89° C | 44% | 1009.5 hPa | 0 mm | - | 463 W/m² | - |
| 1777991129 | 21.11° C | 53% | 1009.9 hPa | 0 mm | - | 329 W/m² | - |
| 1777989929 | 19.44° C | 57% | 1009.9 hPa | 0 mm | - | 376 W/m² | - |
| 1777989629 | 19.44° C | 58% | 1009.8 hPa | 0 mm | - | 454 W/m² | - |
| 1777987230 | 18.33° C | 60% | 1010.1 hPa | 0 mm | - | 90 W/m² | - |
| 1777986629 | 18.33° C | 60% | 1010 hPa | 0 mm | - | 216 W/m² | - |
| 1777986329 | 18.89° C | 59% | 1010.1 hPa | 0 mm | - | 264 W/m² | - |
| 1777986029 | 18.33° C | 61% | 1009.9 hPa | 0 mm | - | 457 W/m² | - |
| 1777985729 | 17.78° C | 61% | 1010 hPa | 0 mm | - | 518 W/m² | - |
| 1777985429 | 17.78° C | 61% | 1010 hPa | 0 mm | - | 351 W/m² | - |
| 1777983030 | 16.67° C | 65% | 1010 hPa | 0 mm | - | 296 W/m² | - |
| 1777982730 | 16.67° C | 65% | 1009.7 hPa | 0 mm | - | 286 W/m² | - |
| 1777982150 | 16.11° C | 67% | 1009.9 hPa | 0 mm | - | 253 W/m² | - |
| 1777981230 | 15.56° C | 69% | 1009.9 hPa | 0 mm | - | 214 W/m² | - |
| 1777979730 | 14.44° C | 73% | 1009.8 hPa | 0 mm | - | 129 W/m² | - |
* Rain latest hour (hover to see other rain measurements)
** Current wind speed in m/s (hover to see current wind gust speed)